sensor_id;sensor_type;location;lat;lon;timestamp;pressure;altitude;pressure_sealevel;temperature;humidity
12636;BME280;6383;50.830;7.210;2023-01-28T00:01:16;101927.88;;;5.32;74.25
12636;BME280;6383;50.830;7.210;2023-01-28T00:03:57;101925.19;;;5.32;74.64
12636;BME280;6383;50.830;7.210;2023-01-28T00:06:25;101917.91;;;5.32;74.17
12636;BME280;6383;50.830;7.210;2023-01-28T00:08:59;101932.22;;;5.33;73.94
12636;BME280;6383;50.830;7.210;2023-01-28T00:11:28;101930.09;;;5.35;75.00
12636;BME280;6383;50.830;7.210;2023-01-28T00:13:57;101923.88;;;5.35;74.31
12636;BME280;6383;50.830;7.210;2023-01-28T00:16:26;101921.19;;;5.35;73.89
12636;BME280;6383;50.830;7.210;2023-01-28T00:18:54;101922.00;;;5.35;74.16
12636;BME280;6383;50.830;7.210;2023-01-28T00:21:23;101924.47;;;5.37;74.83
12636;BME280;6383;50.830;7.210;2023-01-28T00:23:54;101907.69;;;5.35;74.62
12636;BME280;6383;50.830;7.210;2023-01-28T00:26:24;101915.78;;;5.35;74.25
12636;BME280;6383;50.830;7.210;2023-01-28T00:28:54;101910.16;;;5.36;74.06
12636;BME280;6383;50.830;7.210;2023-01-28T00:31:24;101909.31;;;5.36;73.75
12636;BME280;6383;50.830;7.210;2023-01-28T00:33:54;101909.31;;;5.36;74.29
12636;BME280;6383;50.830;7.210;2023-01-28T00:36:24;101911.19;;;5.35;74.02
12636;BME280;6383;50.830;7.210;2023-01-28T00:38:54;101912.50;;;5.32;73.24
12636;BME280;6383;50.830;7.210;2023-01-28T00:41:26;101913.06;;;5.35;73.58
12636;BME280;6383;50.830;7.210;2023-01-28T00:43:56;101912.28;;;5.34;73.62
12636;BME280;6383;50.830;7.210;2023-01-28T00:46:25;101907.94;;;5.33;74.12
12636;BME280;6383;50.830;7.210;2023-01-28T00:48:54;101916.59;;;5.35;73.89
12636;BME280;6383;50.830;7.210;2023-01-28T00:51:22;101908.75;;;5.34;73.95
12636;BME280;6383;50.830;7.210;2023-01-28T00:53:51;101910.63;;;5.33;73.88
12636;BME280;6383;50.830;7.210;2023-01-28T00:56:19;101914.16;;;5.34;74.08
12636;BME280;6383;50.830;7.210;2023-01-28T00:58:48;101912.50;;;5.32;74.07
12636;BME280;6383;50.830;7.210;2023-01-28T01:01:19;101917.91;;;5.32;73.41
12636;BME280;6383;50.830;7.210;2023-01-28T01:03:49;101919.78;;;5.32;73.34
12636;BME280;6383;50.830;7.210;2023-01-28T01:06:24;101927.06;;;5.31;73.18
12636;BME280;6383;50.830;7.210;2023-01-28T01:08:53;101918.97;;;5.31;72.88
12636;BME280;6383;50.830;7.210;2023-01-28T01:11:21;101913.56;;;5.31;73.28
12636;BME280;6383;50.830;7.210;2023-01-28T01:13:52;101910.88;;;5.31;73.33
12636;BME280;6383;50.830;7.210;2023-01-28T01:16:24;101905.69;;;5.30;73.43
12636;BME280;6383;50.830;7.210;2023-01-28T01:18:53;101907.81;;;5.28;73.79
12636;BME280;6383;50.830;7.210;2023-01-28T01:21:23;101913.44;;;5.26;73.15
12636;BME280;6383;50.830;7.210;2023-01-28T01:23:52;101911.78;;;5.25;73.96
12636;BME280;6383;50.830;7.210;2023-01-28T01:26:20;101914.72;;;5.24;73.46
12636;BME280;6383;50.830;7.210;2023-01-28T01:28:49;101916.00;;;5.21;73.37
12636;BME280;6383;50.830;7.210;2023-01-28T01:31:19;101915.66;;;5.18;73.11
12636;BME280;6383;50.830;7.210;2023-01-28T01:33:50;101916.09;;;5.15;73.29
12636;BME280;6383;50.830;7.210;2023-01-28T01:36:18;101909.53;;;5.11;73.51
12636;BME280;6383;50.830;7.210;2023-01-28T01:38:52;101914.56;;;5.07;72.53
12636;BME280;6383;50.830;7.210;2023-01-28T01:41:26;101923.34;;;5.03;73.04
12636;BME280;6383;50.830;7.210;2023-01-28T01:43:56;101918.63;;;4.98;73.55
12636;BME280;6383;50.830;7.210;2023-01-28T01:46:31;101923.44;;;4.96;73.37
12636;BME280;6383;50.830;7.210;2023-01-28T01:49:05;101915.47;;;4.89;72.71
12636;BME280;6383;50.830;7.210;2023-01-28T01:51:35;101909.69;;;4.86;73.40
12636;BME280;6383;50.830;7.210;2023-01-28T01:54:05;101912.03;;;4.82;72.59
12636;BME280;6383;50.830;7.210;2023-01-28T01:56:37;101904.38;;;4.79;72.98
12636;BME280;6383;50.830;7.210;2023-01-28T01:59:11;101922.88;;;4.76;73.27
12636;BME280;6383;50.830;7.210;2023-01-28T02:01:40;101919.84;;;4.72;73.05
12636;BME280;6383;50.830;7.210;2023-01-28T02:04:14;101924.88;;;4.69;72.52
12636;BME280;6383;50.830;7.210;2023-01-28T02:06:46;101926.38;;;4.65;72.57
12636;BME280;6383;50.830;7.210;2023-01-28T02:09:22;101935.94;;;4.60;72.41
12636;BME280;6383;50.830;7.210;2023-01-28T02:11:53;101936.44;;;4.57;72.78
12636;BME280;6383;50.830;7.210;2023-01-28T02:14:23;101937.91;;;4.53;73.53
12636;BME280;6383;50.830;7.210;2023-01-28T02:16:54;101937.53;;;4.50;73.03
12636;BME280;6383;50.830;7.210;2023-01-28T02:19:26;101936.94;;;4.48;73.80
12636;BME280;6383;50.830;7.210;2023-01-28T02:22:09;101936.59;;;4.44;73.17
12636;BME280;6383;50.830;7.210;2023-01-28T02:25:14;101946.78;;;4.42;73.08
12636;BME280;6383;50.830;7.210;2023-01-28T02:28:05;101944.53;;;4.39;73.31
12636;BME280;6383;50.830;7.210;2023-01-28T02:30:39;101944.75;;;4.38;73.37
12636;BME280;6383;50.830;7.210;2023-01-28T02:33:10;101945.78;;;4.37;73.43
12636;BME280;6383;50.830;7.210;2023-01-28T02:35:47;101944.38;;;4.34;73.29
12636;BME280;6383;50.830;7.210;2023-01-28T02:38:18;101947.06;;;4.34;73.83
12636;BME280;6383;50.830;7.210;2023-01-28T02:40:51;101937.53;;;4.32;73.24
12636;BME280;6383;50.830;7.210;2023-01-28T02:43:35;101938.84;;;4.29;73.82
12636;BME280;6383;50.830;7.210;2023-01-28T02:46:14;101938.47;;;4.25;73.70
12636;BME280;6383;50.830;7.210;2023-01-28T02:49:04;101934.56;;;4.21;73.81
12636;BME280;6383;50.830;7.210;2023-01-28T02:51:45;101936.88;;;4.18;73.64
12636;BME280;6383;50.830;7.210;2023-01-28T02:54:23;101939.78;;;4.16;73.50
12636;BME280;6383;50.830;7.210;2023-01-28T02:57:02;101934.88;;;4.13;73.56
12636;BME280;6383;50.830;7.210;2023-01-28T02:59:39;101939.88;;;4.10;73.58
12636;BME280;6383;50.830;7.210;2023-01-28T03:02:14;101948.19;;;4.08;73.49
12636;BME280;6383;50.830;7.210;2023-01-28T03:04:46;101953.19;;;4.05;73.14
12636;BME280;6383;50.830;7.210;2023-01-28T03:07:18;101957.13;;;4.02;73.07
12636;BME280;6383;50.830;7.210;2023-01-28T03:09:48;101958.19;;;4.01;73.38
12636;BME280;6383;50.830;7.210;2023-01-28T03:12:20;101965.69;;;3.99;72.94
12636;BME280;6383;50.830;7.210;2023-01-28T03:15:12;101966.56;;;3.93;72.60
12636;BME280;6383;50.830;7.210;2023-01-28T03:18:02;101964.53;;;3.88;72.35
12636;BME280;6383;50.830;7.210;2023-01-28T03:20:54;101964.59;;;3.82;72.45
12636;BME280;6383;50.830;7.210;2023-01-28T03:23:48;101976.03;;;3.77;72.90
12636;BME280;6383;50.830;7.210;2023-01-28T03:26:40;101976.69;;;3.73;73.13
12636;BME280;6383;50.830;7.210;2023-01-28T03:29:29;101979.00;;;3.69;73.08
12636;BME280;6383;50.830;7.210;2023-01-28T03:32:19;101981.09;;;3.67;73.07
12636;BME280;6383;50.830;7.210;2023-01-28T03:35:08;101979.88;;;3.63;72.63
12636;BME280;6383;50.830;7.210;2023-01-28T03:37:54;101984.88;;;3.60;73.09
12636;BME280;6383;50.830;7.210;2023-01-28T03:40:26;101984.50;;;3.56;72.89
12636;BME280;6383;50.830;7.210;2023-01-28T03:42:54;101997.34;;;3.54;72.50
12636;BME280;6383;50.830;7.210;2023-01-28T03:45:22;101988.06;;;3.50;73.24
12636;BME280;6383;50.830;7.210;2023-01-28T03:47:52;101995.53;;;3.48;72.90
12636;BME280;6383;50.830;7.210;2023-01-28T03:50:19;101997.22;;;3.42;72.67
12636;BME280;6383;50.830;7.210;2023-01-28T03:52:47;101999.53;;;3.39;72.43
12636;BME280;6383;50.830;7.210;2023-01-28T03:55:16;102001.44;;;3.32;72.24
12636;BME280;6383;50.830;7.210;2023-01-28T03:57:43;101998.56;;;3.27;72.33
12636;BME280;6383;50.830;7.210;2023-01-28T04:02:42;102003.59;;;3.16;72.38
12636;BME280;6383;50.830;7.210;2023-01-28T04:05:12;102006.72;;;3.13;72.87
12636;BME280;6383;50.830;7.210;2023-01-28T04:07:40;102018.97;;;3.09;72.48
12636;BME280;6383;50.830;7.210;2023-01-28T04:10:09;102006.16;;;3.05;72.46
12636;BME280;6383;50.830;7.210;2023-01-28T04:12:37;102005.75;;;3.01;72.87
12636;BME280;6383;50.830;7.210;2023-01-28T04:15:06;102017.97;;;2.97;72.96
12636;BME280;6383;50.830;7.210;2023-01-28T04:17:45;102014.06;;;2.93;72.56
12636;BME280;6383;50.830;7.210;2023-01-28T04:20:15;102021.75;;;2.90;72.91
12636;BME280;6383;50.830;7.210;2023-01-28T04:22:44;102020.28;;;2.87;72.86
12636;BME280;6383;50.830;7.210;2023-01-28T04:25:11;102014.50;;;2.83;73.12
12636;BME280;6383;50.830;7.210;2023-01-28T04:27:40;102013.69;;;2.83;73.46
12636;BME280;6383;50.830;7.210;2023-01-28T04:30:10;102016.38;;;2.83;74.00
12636;BME280;6383;50.830;7.210;2023-01-28T04:32:38;102019.06;;;2.83;73.74
12636;BME280;6383;50.830;7.210;2023-01-28T04:35:07;102016.00;;;2.79;73.73
12636;BME280;6383;50.830;7.210;2023-01-28T04:37:37;102028.81;;;2.77;74.06
12636;BME280;6383;50.830;7.210;2023-01-28T04:40:05;102023.66;;;2.76;74.48
12636;BME280;6383;50.830;7.210;2023-01-28T04:42:34;102017.66;;;2.80;74.41
12636;BME280;6383;50.830;7.210;2023-01-28T04:45:02;102027.59;;;2.80;74.44
12636;BME280;6383;50.830;7.210;2023-01-28T04:47:32;102034.59;;;2.81;74.26
12636;BME280;6383;50.830;7.210;2023-01-28T04:49:59;102031.91;;;2.81;74.35
12636;BME280;6383;50.830;7.210;2023-01-28T04:52:28;102030.84;;;2.82;74.39
12636;BME280;6383;50.830;7.210;2023-01-28T04:54:58;102033.53;;;2.82;74.10
12636;BME280;6383;50.830;7.210;2023-01-28T04:57:26;102034.81;;;2.79;74.32
12636;BME280;6383;50.830;7.210;2023-01-28T04:59:54;102045.56;;;2.79;74.11
12636;BME280;6383;50.830;7.210;2023-01-28T05:02:22;102046.41;;;2.80;74.18
12636;BME280;6383;50.830;7.210;2023-01-28T05:04:49;102049.91;;;2.80;74.31
12636;BME280;6383;50.830;7.210;2023-01-28T05:07:18;102042.69;;;2.81;74.38
12636;BME280;6383;50.830;7.210;2023-01-28T05:09:46;102028.63;;;2.79;75.08
12636;BME280;6383;50.830;7.210;2023-01-28T05:12:15;102027.31;;;2.88;74.61
12636;BME280;6383;50.830;7.210;2023-01-28T05:14:44;102029.81;;;2.90;73.97
12636;BME280;6383;50.830;7.210;2023-01-28T05:17:12;102036.00;;;2.90;74.18
12636;BME280;6383;50.830;7.210;2023-01-28T05:19:40;102039.94;;;2.88;73.96
12636;BME280;6383;50.830;7.210;2023-01-28T05:22:08;102047.78;;;2.89;73.68
12636;BME280;6383;50.830;7.210;2023-01-28T05:24:37;102045.31;;;2.88;74.12
12636;BME280;6383;50.830;7.210;2023-01-28T05:27:06;102039.53;;;2.84;73.40
12636;BME280;6383;50.830;7.210;2023-01-28T05:29:35;102038.91;;;2.82;73.75
12636;BME280;6383;50.830;7.210;2023-01-28T05:32:04;102034.38;;;2.82;74.17
12636;BME280;6383;50.830;7.210;2023-01-28T05:34:33;102044.09;;;2.83;73.87
12636;BME280;6383;50.830;7.210;2023-01-28T05:37:01;102042.00;;;2.86;73.93
12636;BME280;6383;50.830;7.210;2023-01-28T05:39:30;102045.94;;;2.83;74.30
12636;BME280;6383;50.830;7.210;2023-01-28T05:41:57;102046.41;;;2.80;74.06
12636;BME280;6383;50.830;7.210;2023-01-28T05:44:26;102037.50;;;2.79;74.14
12636;BME280;6383;50.830;7.210;2023-01-28T05:46:55;102043.09;;;2.78;73.63
12636;BME280;6383;50.830;7.210;2023-01-28T05:49:24;102046.00;;;2.76;73.64
12636;BME280;6383;50.830;7.210;2023-01-28T05:51:52;102052.41;;;2.75;73.90
12636;BME280;6383;50.830;7.210;2023-01-28T05:54:20;102053.22;;;2.76;74.49
12636;BME280;6383;50.830;7.210;2023-01-28T05:56:49;102058.59;;;2.76;74.32
12636;BME280;6383;50.830;7.210;2023-01-28T05:59:16;102064.81;;;2.76;74.19
12636;BME280;6383;50.830;7.210;2023-01-28T06:01:44;102069.97;;;2.78;74.22
12636;BME280;6383;50.830;7.210;2023-01-28T06:04:13;102067.28;;;2.78;74.32
12636;BME280;6383;50.830;7.210;2023-01-28T06:06:43;102065.63;;;2.77;74.67
12636;BME280;6383;50.830;7.210;2023-01-28T06:09:10;102061.91;;;2.78;74.23
12636;BME280;6383;50.830;7.210;2023-01-28T06:11:38;102064.38;;;2.79;74.72
12636;BME280;6383;50.830;7.210;2023-01-28T06:14:07;102064.19;;;2.81;74.74
12636;BME280;6383;50.830;7.210;2023-01-28T06:16:36;102066.22;;;2.86;74.47
12636;BME280;6383;50.830;7.210;2023-01-28T06:19:04;102067.66;;;2.88;74.67
12636;BME280;6383;50.830;7.210;2023-01-28T06:21:33;102074.47;;;2.91;74.44
12636;BME280;6383;50.830;7.210;2023-01-28T06:24:02;102076.75;;;2.94;74.52
12636;BME280;6383;50.830;7.210;2023-01-28T06:26:31;102072.00;;;2.96;74.81
12636;BME280;6383;50.830;7.210;2023-01-28T06:29:00;102075.25;;;2.98;75.02
12636;BME280;6383;50.830;7.210;2023-01-28T06:31:28;102077.75;;;2.99;74.49
12636;BME280;6383;50.830;7.210;2023-01-28T06:33:56;102081.66;;;3.03;74.79
12636;BME280;6383;50.830;7.210;2023-01-28T06:36:25;102081.47;;;3.05;74.84
12636;BME280;6383;50.830;7.210;2023-01-28T06:38:56;102081.25;;;3.06;74.57
12636;BME280;6383;50.830;7.210;2023-01-28T06:41:23;102081.03;;;3.08;74.35
12636;BME280;6383;50.830;7.210;2023-01-28T06:43:52;102083.50;;;3.09;74.27
12636;BME280;6383;50.830;7.210;2023-01-28T06:46:20;102085.16;;;3.10;75.00
12636;BME280;6383;50.830;7.210;2023-01-28T06:48:48;102093.00;;;3.12;75.14
12636;BME280;6383;50.830;7.210;2023-01-28T06:51:17;102088.44;;;3.12;74.97
12636;BME280;6383;50.830;7.210;2023-01-28T06:53:45;102094.44;;;3.14;74.77
12636;BME280;6383;50.830;7.210;2023-01-28T06:56:15;102099.59;;;3.16;74.69
12636;BME280;6383;50.830;7.210;2023-01-28T06:58:43;102091.31;;;3.17;74.92
12636;BME280;6383;50.830;7.210;2023-01-28T07:01:12;102085.75;;;3.19;74.33
12636;BME280;6383;50.830;7.210;2023-01-28T07:03:40;102089.88;;;3.22;74.39
12636;BME280;6383;50.830;7.210;2023-01-28T07:06:09;102091.31;;;3.24;74.22
12636;BME280;6383;50.830;7.210;2023-01-28T07:08:38;102090.84;;;3.27;74.40
12636;BME280;6383;50.830;7.210;2023-01-28T07:11:08;102097.06;;;3.28;74.92
12636;BME280;6383;50.830;7.210;2023-01-28T07:13:38;102095.00;;;3.30;74.88
12636;BME280;6383;50.830;7.210;2023-01-28T07:16:07;102099.13;;;3.32;74.32
12636;BME280;6383;50.830;7.210;2023-01-28T07:18:35;102094.56;;;3.33;74.74
12636;BME280;6383;50.830;7.210;2023-01-28T07:21:02;102089.81;;;3.35;74.46
12636;BME280;6383;50.830;7.210;2023-01-28T07:23:30;102094.97;;;3.36;74.40
12636;BME280;6383;50.830;7.210;2023-01-28T07:26:02;102094.75;;;3.38;74.81
12636;BME280;6383;50.830;7.210;2023-01-28T07:28:32;102097.44;;;3.38;74.79
12636;BME280;6383;50.830;7.210;2023-01-28T07:31:02;102102.63;;;3.39;74.11
12636;BME280;6383;50.830;7.210;2023-01-28T07:33:31;102110.47;;;3.41;74.46
12636;BME280;6383;50.830;7.210;2023-01-28T07:35:59;102097.81;;;3.41;74.45
12636;BME280;6383;50.830;7.210;2023-01-28T07:38:28;102093.25;;;3.42;75.03
12636;BME280;6383;50.830;7.210;2023-01-28T07:40:57;102096.78;;;3.42;75.00
12636;BME280;6383;50.830;7.210;2023-01-28T07:43:24;102111.06;;;3.43;74.46
12636;BME280;6383;50.830;7.210;2023-01-28T07:45:52;102110.03;;;3.44;74.73
12636;BME280;6383;50.830;7.210;2023-01-28T07:48:21;102110.84;;;3.44;75.26
12636;BME280;6383;50.830;7.210;2023-01-28T07:50:50;102114.38;;;3.45;75.44
12636;BME280;6383;50.830;7.210;2023-01-28T07:53:19;102130.31;;;3.46;74.64
12636;BME280;6383;50.830;7.210;2023-01-28T07:55:48;102132.78;;;3.48;75.52
12636;BME280;6383;50.830;7.210;2023-01-28T07:58:17;102122.84;;;3.48;74.91
12636;BME280;6383;50.830;7.210;2023-01-28T08:00:45;102127.19;;;3.49;74.61
12636;BME280;6383;50.830;7.210;2023-01-28T08:03:13;102116.63;;;3.48;75.12
12636;BME280;6383;50.830;7.210;2023-01-28T08:05:45;102119.34;;;3.48;74.97
12636;BME280;6383;50.830;7.210;2023-01-28T08:08:15;102119.75;;;3.45;74.72
12636;BME280;6383;50.830;7.210;2023-01-28T08:10:44;102120.63;;;3.39;74.75
12636;BME280;6383;50.830;7.210;2023-01-28T08:13:13;102118.38;;;3.36;74.60
12636;BME280;6383;50.830;7.210;2023-01-28T08:15:42;102116.09;;;3.33;74.67
12636;BME280;6383;50.830;7.210;2023-01-28T08:18:12;102115.28;;;3.32;75.30
12636;BME280;6383;50.830;7.210;2023-01-28T08:20:43;102118.56;;;3.34;75.34
12636;BME280;6383;50.830;7.210;2023-01-28T08:23:15;102111.13;;;3.36;75.49
12636;BME280;6383;50.830;7.210;2023-01-28T08:25:43;102124.97;;;3.40;75.49
12636;BME280;6383;50.830;7.210;2023-01-28T08:28:13;102129.91;;;3.43;76.43
12636;BME280;6383;50.830;7.210;2023-01-28T08:30:42;102124.31;;;3.44;76.22
12636;BME280;6383;50.830;7.210;2023-01-28T08:33:13;102126.38;;;3.49;76.46
12636;BME280;6383;50.830;7.210;2023-01-28T08:35:40;102128.03;;;3.50;76.38
12636;BME280;6383;50.830;7.210;2023-01-28T08:38:12;102137.31;;;3.54;76.37
12636;BME280;6383;50.830;7.210;2023-01-28T08:40:41;102133.34;;;3.57;76.63
12636;BME280;6383;50.830;7.210;2023-01-28T08:43:10;102134.78;;;3.59;76.63
12636;BME280;6383;50.830;7.210;2023-01-28T08:45:39;102142.44;;;3.62;76.46
12636;BME280;6383;50.830;7.210;2023-01-28T08:48:11;102141.41;;;3.63;75.70
12636;BME280;6383;50.830;7.210;2023-01-28T08:50:40;102134.16;;;3.64;76.32
12636;BME280;6383;50.830;7.210;2023-01-28T08:53:12;102132.50;;;3.63;75.61
12636;BME280;6383;50.830;7.210;2023-01-28T08:55:42;102145.13;;;3.62;75.83
12636;BME280;6383;50.830;7.210;2023-01-28T08:58:12;102148.03;;;3.61;76.09
12636;BME280;6383;50.830;7.210;2023-01-28T09:00:42;102143.28;;;3.63;76.46
12636;BME280;6383;50.830;7.210;2023-01-28T09:03:13;102147.41;;;3.65;75.64
12636;BME280;6383;50.830;7.210;2023-01-28T09:05:42;102154.44;;;3.66;75.74
12636;BME280;6383;50.830;7.210;2023-01-28T09:08:13;102155.88;;;3.69;76.37
12636;BME280;6383;50.830;7.210;2023-01-28T09:10:43;102156.50;;;3.71;76.29
12636;BME280;6383;50.830;7.210;2023-01-28T09:13:13;102154.38;;;3.73;75.99
12636;BME280;6383;50.830;7.210;2023-01-28T09:15:42;102156.66;;;3.76;76.01
12636;BME280;6383;50.830;7.210;2023-01-28T09:18:11;102161.00;;;3.77;75.62
12636;BME280;6383;50.830;7.210;2023-01-28T09:20:40;102167.81;;;3.79;75.67
12636;BME280;6383;50.830;7.210;2023-01-28T09:23:08;102164.72;;;3.82;75.07
12636;BME280;6383;50.830;7.210;2023-01-28T09:25:39;102162.38;;;3.86;75.22
12636;BME280;6383;50.830;7.210;2023-01-28T09:28:07;102172.94;;;3.87;75.08
12636;BME280;6383;50.830;7.210;2023-01-28T09:30:35;102178.94;;;3.89;74.51
12636;BME280;6383;50.830;7.210;2023-01-28T09:33:03;102189.28;;;3.93;75.20
12636;BME280;6383;50.830;7.210;2023-01-28T09:35:33;102193.44;;;3.95;74.25
12636;BME280;6383;50.830;7.210;2023-01-28T09:38:02;102193.22;;;3.97;74.97
12636;BME280;6383;50.830;7.210;2023-01-28T09:40:34;102193.00;;;3.98;74.86
12636;BME280;6383;50.830;7.210;2023-01-28T09:43:17;102201.91;;;3.99;73.63
12636;BME280;6383;50.830;7.210;2023-01-28T09:45:54;102201.44;;;4.02;74.67
12636;BME280;6383;50.830;7.210;2023-01-28T09:48:29;102200.41;;;4.03;74.05
12636;BME280;6383;50.830;7.210;2023-01-28T09:50:58;102202.88;;;4.04;73.95
12636;BME280;6383;50.830;7.210;2023-01-28T09:53:30;102214.28;;;4.06;72.99
12636;BME280;6383;50.830;7.210;2023-01-28T09:56:02;102213.84;;;4.09;73.06
12636;BME280;6383;50.830;7.210;2023-01-28T09:58:31;102223.38;;;4.12;73.36
12636;BME280;6383;50.830;7.210;2023-01-28T10:01:04;102218.59;;;4.14;73.12
12636;BME280;6383;50.830;7.210;2023-01-28T10:03:46;102214.88;;;4.15;72.91
12636;BME280;6383;50.830;7.210;2023-01-28T10:06:26;102226.22;;;4.17;71.98
12636;BME280;6383;50.830;7.210;2023-01-28T10:09:07;102224.34;;;4.17;72.25
12636;BME280;6383;50.830;7.210;2023-01-28T10:11:55;102227.88;;;4.18;72.72
12636;BME280;6383;50.830;7.210;2023-01-28T10:14:38;102229.75;;;4.17;71.44
12636;BME280;6383;50.830;7.210;2023-01-28T10:17:16;102237.63;;;4.19;71.07
12636;BME280;6383;50.830;7.210;2023-01-28T10:19:53;102237.41;;;4.20;71.01
12636;BME280;6383;50.830;7.210;2023-01-28T10:22:27;102239.28;;;4.20;70.15
12636;BME280;6383;50.830;7.210;2023-01-28T10:24:57;102236.56;;;4.20;70.63
12636;BME280;6383;50.830;7.210;2023-01-28T10:27:33;102232.22;;;4.19;70.58
12636;BME280;6383;50.830;7.210;2023-01-28T10:30:17;102218.13;;;4.17;69.88
12636;BME280;6383;50.830;7.210;2023-01-28T10:32:51;102218.97;;;4.17;70.28
12636;BME280;6383;50.830;7.210;2023-01-28T10:35:20;102219.78;;;4.18;69.47
12636;BME280;6383;50.830;7.210;2023-01-28T10:37:51;102221.44;;;4.19;69.32
12636;BME280;6383;50.830;7.210;2023-01-28T10:40:24;102225.78;;;4.20;69.62
12636;BME280;6383;50.830;7.210;2023-01-28T10:43:04;102235.31;;;4.22;69.26
12636;BME280;6383;50.830;7.210;2023-01-28T10:45:39;102239.06;;;4.21;68.00
12636;BME280;6383;50.830;7.210;2023-01-28T10:48:17;102239.28;;;4.20;68.39
12636;BME280;6383;50.830;7.210;2023-01-28T10:50:50;102233.88;;;4.20;68.60
12636;BME280;6383;50.830;7.210;2023-01-28T10:53:19;102228.28;;;4.21;68.32
12636;BME280;6383;50.830;7.210;2023-01-28T10:55:51;102229.72;;;4.24;68.18
12636;BME280;6383;50.830;7.210;2023-01-28T10:58:24;102218.13;;;4.23;68.21
12636;BME280;6383;50.830;7.210;2023-01-28T11:00:56;102218.72;;;4.25;67.45
12636;BME280;6383;50.830;7.210;2023-01-28T11:03:27;102221.19;;;4.27;67.71
12636;BME280;6383;50.830;7.210;2023-01-28T11:05:57;102208.34;;;4.29;67.53
12636;BME280;6383;50.830;7.210;2023-01-28T11:08:27;102217.84;;;4.32;67.29
12636;BME280;6383;50.830;7.210;2023-01-28T11:10:57;102219.69;;;4.31;67.22
12636;BME280;6383;50.830;7.210;2023-01-28T11:13:28;102224.50;;;4.29;66.26
12636;BME280;6383;50.830;7.210;2023-01-28T11:16:02;102222.47;;;4.24;66.21
12636;BME280;6383;50.830;7.210;2023-01-28T11:18:33;102231.59;;;4.23;65.63
12636;BME280;6383;50.830;7.210;2023-01-28T11:21:03;102229.94;;;4.22;65.98
12636;BME280;6383;50.830;7.210;2023-01-28T11:23:36;102225.59;;;4.21;65.23
12636;BME280;6383;50.830;7.210;2023-01-28T11:26:14;102207.75;;;4.20;65.80
12636;BME280;6383;50.830;7.210;2023-01-28T11:28:44;102203.81;;;4.23;65.63
12636;BME280;6383;50.830;7.210;2023-01-28T11:31:16;102212.09;;;4.21;65.39
12636;BME280;6383;50.830;7.210;2023-01-28T11:33:49;102209.63;;;4.20;64.87
12636;BME280;6383;50.830;7.210;2023-01-28T11:36:21;102209.63;;;4.20;65.07
12636;BME280;6383;50.830;7.210;2023-01-28T11:38:50;102216.47;;;4.22;64.93
12636;BME280;6383;50.830;7.210;2023-01-28T11:41:26;102203.81;;;4.23;65.44
12636;BME280;6383;50.830;7.210;2023-01-28T11:43:54;102209.19;;;4.23;64.77
12636;BME280;6383;50.830;7.210;2023-01-28T11:46:44;102208.59;;;4.21;64.36
12636;BME280;6383;50.830;7.210;2023-01-28T11:49:21;102213.38;;;4.19;64.55
12636;BME280;6383;50.830;7.210;2023-01-28T11:51:57;102215.22;;;4.18;65.13
12636;BME280;6383;50.830;7.210;2023-01-28T11:54:41;102213.59;;;4.17;64.17
12636;BME280;6383;50.830;7.210;2023-01-28T11:57:21;102217.09;;;4.18;64.88
12636;BME280;6383;50.830;7.210;2023-01-28T12:00:13;102211.50;;;4.19;64.33
12636;BME280;6383;50.830;7.210;2023-01-28T12:02:52;102223.09;;;4.20;64.70
12636;BME280;6383;50.830;7.210;2023-01-28T12:05:37;102213.16;;;4.20;63.98
12636;BME280;6383;50.830;7.210;2023-01-28T12:08:14;102221.66;;;4.17;64.07
12636;BME280;6383;50.830;7.210;2023-01-28T12:10:56;102214.88;;;4.15;63.46
12636;BME280;6383;50.830;7.210;2023-01-28T12:13:37;102200.56;;;4.14;63.96
12636;BME280;6383;50.830;7.210;2023-01-28T12:16:17;102198.44;;;4.16;64.17
12636;BME280;6383;50.830;7.210;2023-01-28T12:19:13;102197.03;;;4.14;64.05
12636;BME280;6383;50.830;7.210;2023-01-28T12:21:54;102199.75;;;4.14;63.70
12636;BME280;6383;50.830;7.210;2023-01-28T12:24:37;102198.91;;;4.13;62.97
12636;BME280;6383;50.830;7.210;2023-01-28T12:27:16;102200.16;;;4.11;63.12
12636;BME280;6383;50.830;7.210;2023-01-28T12:29:52;102206.59;;;4.10;63.17
12636;BME280;6383;50.830;7.210;2023-01-28T12:32:37;102201.22;;;4.10;63.01
12636;BME280;6383;50.830;7.210;2023-01-28T12:35:29;102195.59;;;4.11;62.99
12636;BME280;6383;50.830;7.210;2023-01-28T12:38:07;102188.34;;;4.12;63.63
12636;BME280;6383;50.830;7.210;2023-01-28T12:40:48;102195.38;;;4.13;63.17
12636;BME280;6383;50.830;7.210;2023-01-28T12:43:21;102196.22;;;4.13;63.39
12636;BME280;6383;50.830;7.210;2023-01-28T12:45:54;102190.00;;;4.13;63.17
12636;BME280;6383;50.830;7.210;2023-01-28T12:48:27;102190.63;;;4.15;63.34
12636;BME280;6383;50.830;7.210;2023-01-28T12:51:02;102202.81;;;4.17;63.24
12636;BME280;6383;50.830;7.210;2023-01-28T12:53:36;102196.38;;;4.18;62.72
12636;BME280;6383;50.830;7.210;2023-01-28T12:56:10;102190.34;;;4.23;63.34
12636;BME280;6383;50.830;7.210;2023-01-28T12:58:45;102195.50;;;4.24;62.81
12636;BME280;6383;50.830;7.210;2023-01-28T13:01:20;102194.47;;;4.25;62.45
12636;BME280;6383;50.830;7.210;2023-01-28T13:03:55;102189.91;;;4.26;61.83
12636;BME280;6383;50.830;7.210;2023-01-28T13:06:31;102190.13;;;4.24;62.06
12636;BME280;6383;50.830;7.210;2023-01-28T13:09:05;102195.72;;;4.23;62.77
12636;BME280;6383;50.830;7.210;2023-01-28T13:11:37;102191.16;;;4.23;61.69
12636;BME280;6383;50.830;7.210;2023-01-28T13:14:06;102191.16;;;4.23;62.44
12636;BME280;6383;50.830;7.210;2023-01-28T13:16:36;102177.47;;;4.25;61.88
12636;BME280;6383;50.830;7.210;2023-01-28T13:19:06;102171.44;;;4.30;61.58
12636;BME280;6383;50.830;7.210;2023-01-28T13:21:35;102172.00;;;4.32;61.54
12636;BME280;6383;50.830;7.210;2023-01-28T13:24:19;102161.84;;;4.34;61.94
12636;BME280;6383;50.830;7.210;2023-01-28T13:26:48;102168.66;;;4.36;61.28
12636;BME280;6383;50.830;7.210;2023-01-28T13:29:27;102161.19;;;4.38;61.69
12636;BME280;6383;50.830;7.210;2023-01-28T13:31:58;102146.47;;;4.41;61.75
12636;BME280;6383;50.830;7.210;2023-01-28T13:34:32;102152.25;;;4.44;61.76
12636;BME280;6383;50.830;7.210;2023-01-28T13:37:18;102153.66;;;4.47;61.70
12636;BME280;6383;50.830;7.210;2023-01-28T13:39:59;102149.91;;;4.48;61.36